sensor_id;sensor_type;location;lat;lon;timestamp;pressure;altitude;pressure_sealevel;temperature;humidity
54994;BME280;40891;47.242;8.648;2023-02-04T00:01:16;97890.84;;;6.33;94.84
54994;BME280;40891;47.242;8.648;2023-02-04T00:03:42;97889.25;;;6.28;97.99
54994;BME280;40891;47.242;8.648;2023-02-04T00:06:07;97898.75;;;6.38;98.50
54994;BME280;40891;47.242;8.648;2023-02-04T00:08:32;97891.94;;;6.14;100.00
54994;BME280;40891;47.242;8.648;2023-02-04T00:10:58;97886.78;;;6.09;100.00
54994;BME280;40891;47.242;8.648;2023-02-04T00:13:23;97890.34;;;6.13;100.00
54994;BME280;40891;47.242;8.648;2023-02-04T00:15:48;97900.19;;;6.07;100.00
54994;BME280;40891;47.242;8.648;2023-02-04T00:18:13;97899.38;;;6.03;100.00
54994;BME280;40891;47.242;8.648;2023-02-04T00:20:39;97887.09;;;5.97;100.00
54994;BME280;40891;47.242;8.648;2023-02-04T00:23:04;97900.19;;;6.07;100.00
54994;BME280;40891;47.242;8.648;2023-02-04T00:25:30;97905.25;;;5.98;100.00
54994;BME280;40891;47.242;8.648;2023-02-04T00:27:55;97893.78;;;5.92;100.00
54994;BME280;40891;47.242;8.648;2023-02-04T00:30:20;97896.94;;;5.91;100.00
54994;BME280;40891;47.242;8.648;2023-02-04T00:32:46;97906.78;;;5.88;100.00
54994;BME280;40891;47.242;8.648;2023-02-04T00:35:11;97917.81;;;5.88;100.00
54994;BME280;40891;47.242;8.648;2023-02-04T00:37:37;97913.88;;;5.89;100.00
54994;BME280;40891;47.242;8.648;2023-02-04T00:40:02;97918.63;;;5.89;100.00
54994;BME280;40891;47.242;8.648;2023-02-04T00:42:28;97917.88;;;5.99;100.00
54994;BME280;40891;47.242;8.648;2023-02-04T00:44:53;97919.06;;;5.98;100.00
54994;BME280;40891;47.242;8.648;2023-02-04T00:47:22;97907.22;;;5.94;100.00
54994;BME280;40891;47.242;8.648;2023-02-04T00:49:47;97907.13;;;5.87;100.00
54994;BME280;40891;47.242;8.648;2023-02-04T00:52:12;97918.25;;;5.97;100.00
54994;BME280;40891;47.242;8.648;2023-02-04T00:54:37;97916.75;;;6.10;100.00
54994;BME280;40891;47.242;8.648;2023-02-04T00:57:03;97908.81;;;6.02;100.00
54994;BME280;40891;47.242;8.648;2023-02-04T00:59:28;97900.84;;;5.90;100.00
54994;BME280;40891;47.242;8.648;2023-02-04T01:01:53;97900.47;;;5.88;100.00
54994;BME280;40891;47.242;8.648;2023-02-04T01:04:19;97907.88;;;5.80;100.00
54994;BME280;40891;47.242;8.648;2023-02-04T01:06:45;97902.69;;;5.75;100.00
54994;BME280;40891;47.242;8.648;2023-02-04T01:09:10;97897.56;;;5.74;100.00
54994;BME280;40891;47.242;8.648;2023-02-04T01:11:36;97895.13;;;5.62;100.00
54994;BME280;40891;47.242;8.648;2023-02-04T01:14:01;97907.75;;;5.63;100.00
54994;BME280;40891;47.242;8.648;2023-02-04T01:16:27;97904.53;;;5.57;100.00
54994;BME280;40891;47.242;8.648;2023-02-04T01:18:52;97922.88;;;5.83;100.00
54994;BME280;40891;47.242;8.648;2023-02-04T01:21:21;97912.47;;;5.62;100.00
54994;BME280;40891;47.242;8.648;2023-02-04T01:23:46;97907.88;;;5.80;100.00
54994;BME280;40891;47.242;8.648;2023-02-04T01:26:14;97911.31;;;5.67;100.00
54994;BME280;40891;47.242;8.648;2023-02-04T01:28:39;97907.34;;;5.64;100.00
54994;BME280;40891;47.242;8.648;2023-02-04T01:31:04;97910.09;;;5.61;100.00
54994;BME280;40891;47.242;8.648;2023-02-04T01:33:30;97910.91;;;5.65;100.00
54994;BME280;40891;47.242;8.648;2023-02-04T01:35:55;97910.88;;;5.58;100.00
54994;BME280;40891;47.242;8.648;2023-02-04T01:38:20;97913.63;;;5.61;100.00
54994;BME280;40891;47.242;8.648;2023-02-04T01:40:46;97916.72;;;5.53;100.00
54994;BME280;40891;47.242;8.648;2023-02-04T01:43:11;97913.16;;;5.52;100.00
54994;BME280;40891;47.242;8.648;2023-02-04T01:45:37;97911.66;;;5.62;100.00
54994;BME280;40891;47.242;8.648;2023-02-04T01:48:04;97906.09;;;5.55;100.00
54994;BME280;40891;47.242;8.648;2023-02-04T01:50:30;97917.88;;;5.51;100.00
54994;BME280;40891;47.242;8.648;2023-02-04T01:52:55;97916.34;;;5.54;100.00
54994;BME280;40891;47.242;8.648;2023-02-04T01:55:25;97909.78;;;5.73;100.00
54994;BME280;40891;47.242;8.648;2023-02-04T01:57:51;97908.50;;;5.60;100.00
54994;BME280;40891;47.242;8.648;2023-02-04T02:00:29;97906.91;;;5.55;100.00
54994;BME280;40891;47.242;8.648;2023-02-04T02:02:55;97912.34;;;5.48;100.00
54994;BME280;40891;47.242;8.648;2023-02-04T02:05:24;97898.13;;;5.42;100.00
54994;BME280;40891;47.242;8.648;2023-02-04T02:07:52;97886.50;;;5.67;100.00
54994;BME280;40891;47.242;8.648;2023-02-04T02:10:19;97883.34;;;5.68;100.00
54994;BME280;40891;47.242;8.648;2023-02-04T02:12:45;97888.13;;;5.75;100.00
54994;BME280;40891;47.242;8.648;2023-02-04T02:15:12;97883.22;;;5.50;100.00
54994;BME280;40891;47.242;8.648;2023-02-04T02:17:38;97888.84;;;5.65;100.00
54994;BME280;40891;47.242;8.648;2023-02-04T02:20:06;97892.25;;;5.47;100.00
54994;BME280;40891;47.242;8.648;2023-02-04T02:22:51;97894.25;;;5.50;100.00
54994;BME280;40891;47.242;8.648;2023-02-04T02:25:20;97884.88;;;5.66;100.00
54994;BME280;40891;47.242;8.648;2023-02-04T02:27:45;97884.75;;;5.44;100.00
54994;BME280;40891;47.242;8.648;2023-02-04T02:30:12;97889.47;;;5.44;100.00
54994;BME280;40891;47.242;8.648;2023-02-04T02:32:39;97884.38;;;5.49;100.00
54994;BME280;40891;47.242;8.648;2023-02-04T02:35:05;97879.31;;;5.55;100.00
54994;BME280;40891;47.242;8.648;2023-02-04T02:37:31;97888.38;;;5.56;100.00
54994;BME280;40891;47.242;8.648;2023-02-04T02:39:57;97878.56;;;5.62;100.00
54994;BME280;40891;47.242;8.648;2023-02-04T02:42:22;97869.78;;;5.45;100.00
54994;BME280;40891;47.242;8.648;2023-02-04T02:44:48;97862.59;;;5.34;100.00
54994;BME280;40891;47.242;8.648;2023-02-04T02:47:16;97868.19;;;5.41;100.00
54994;BME280;40891;47.242;8.648;2023-02-04T02:49:44;97868.47;;;5.32;100.00
54994;BME280;40891;47.242;8.648;2023-02-04T02:52:12;97878.34;;;5.30;100.00
54994;BME280;40891;47.242;8.648;2023-02-04T02:54:38;97871.25;;;5.32;100.00
54994;BME280;40891;47.242;8.648;2023-02-04T02:57:13;97869.72;;;5.38;100.00
54994;BME280;40891;47.242;8.648;2023-02-04T02:59:39;97863.34;;;5.27;100.00
54994;BME280;40891;47.242;8.648;2023-02-04T03:02:05;97870.06;;;5.30;100.00
54994;BME280;40891;47.242;8.648;2023-02-04T03:04:34;97867.31;;;5.30;100.00
54994;BME280;40891;47.242;8.648;2023-02-04T03:07:01;97855.78;;;5.21;100.00
54994;BME280;40891;47.242;8.648;2023-02-04T03:09:28;97857.34;;;5.18;100.00
54994;BME280;40891;47.242;8.648;2023-02-04T03:11:53;97851.13;;;5.25;100.00
54994;BME280;40891;47.242;8.648;2023-02-04T03:14:19;97856.13;;;5.12;100.00
54994;BME280;40891;47.242;8.648;2023-02-04T03:16:46;97856.19;;;5.19;100.00
54994;BME280;40891;47.242;8.648;2023-02-04T03:19:12;97867.22;;;5.19;100.00
54994;BME280;40891;47.242;8.648;2023-02-04T03:21:38;97875.75;;;5.07;100.00
54994;BME280;40891;47.242;8.648;2023-02-04T03:24:04;97873.81;;;5.11;100.00
54994;BME280;40891;47.242;8.648;2023-02-04T03:26:29;97873.47;;;5.13;100.00
54994;BME280;40891;47.242;8.648;2023-02-04T03:28:55;97878.53;;;5.07;100.00
54994;BME280;40891;47.242;8.648;2023-02-04T03:31:21;97883.28;;;5.14;100.00
54994;BME280;40891;47.242;8.648;2023-02-04T03:33:46;97896.66;;;5.08;100.00
54994;BME280;40891;47.242;8.648;2023-02-04T03:36:11;97894.38;;;5.17;100.00
54994;BME280;40891;47.242;8.648;2023-02-04T03:38:37;97890.81;;;5.17;100.00
54994;BME280;40891;47.242;8.648;2023-02-04T03:41:03;97888.44;;;5.15;100.00
54994;BME280;40891;47.242;8.648;2023-02-04T03:43:28;97881.69;;;5.09;100.00
54994;BME280;40891;47.242;8.648;2023-02-04T03:45:53;97882.88;;;5.08;100.00
54994;BME280;40891;47.242;8.648;2023-02-04T03:48:19;97879.72;;;5.06;100.00
54994;BME280;40891;47.242;8.648;2023-02-04T03:50:44;97871.06;;;5.11;100.00
54994;BME280;40891;47.242;8.648;2023-02-04T03:53:10;97875.06;;;5.17;100.00
54994;BME280;40891;47.242;8.648;2023-02-04T03:55:35;97872.25;;;5.10;100.00
54994;BME280;40891;47.242;8.648;2023-02-04T03:58:01;97871.84;;;5.08;100.00
54994;BME280;40891;47.242;8.648;2023-02-04T04:00:27;97882.06;;;5.08;100.00
54994;BME280;40891;47.242;8.648;2023-02-04T04:02:53;97874.25;;;5.13;100.00
54994;BME280;40891;47.242;8.648;2023-02-04T04:05:19;97880.19;;;5.15;100.00
54994;BME280;40891;47.242;8.648;2023-02-04T04:07:44;97874.66;;;5.15;100.00
54994;BME280;40891;47.242;8.648;2023-02-04T04:10:10;97877.06;;;5.20;100.00
54994;BME280;40891;47.242;8.648;2023-02-04T04:12:35;97881.06;;;5.26;100.00
54994;BME280;40891;47.242;8.648;2023-02-04T04:15:00;97879.47;;;5.25;100.00
54994;BME280;40891;47.242;8.648;2023-02-04T04:17:26;97877.41;;;5.15;100.00
54994;BME280;40891;47.242;8.648;2023-02-04T04:19:51;97883.34;;;5.17;100.00
54994;BME280;40891;47.242;8.648;2023-02-04T04:22:16;97879.84;;;5.20;100.00
54994;BME280;40891;47.242;8.648;2023-02-04T04:24:42;97892.44;;;5.21;100.00
54994;BME280;40891;47.242;8.648;2023-02-04T04:27:07;97883.81;;;5.26;100.00
54994;BME280;40891;47.242;8.648;2023-02-04T04:29:32;97881.97;;;5.44;100.00
54994;BME280;40891;47.242;8.648;2023-02-04T04:31:57;97872.13;;;5.43;100.00
54994;BME280;40891;47.242;8.648;2023-02-04T04:34:23;97877.50;;;5.26;100.00
54994;BME280;40891;47.242;8.648;2023-02-04T04:36:48;97887.31;;;5.23;100.00
54994;BME280;40891;47.242;8.648;2023-02-04T04:39:13;97886.56;;;5.23;100.00
54994;BME280;40891;47.242;8.648;2023-02-04T04:41:39;97881.44;;;5.25;100.00
54994;BME280;40891;47.242;8.648;2023-02-04T04:44:04;97882.22;;;5.25;100.00
54994;BME280;40891;47.242;8.648;2023-02-04T04:46:30;97884.69;;;5.37;100.00
54994;BME280;40891;47.242;8.648;2023-02-04T04:48:55;97882.25;;;5.29;100.00
54994;BME280;40891;47.242;8.648;2023-02-04T04:51:20;97881.50;;;5.35;100.00
54994;BME280;40891;47.242;8.648;2023-02-04T04:53:45;97874.50;;;5.45;100.00
54994;BME280;40891;47.242;8.648;2023-02-04T04:56:11;97865.78;;;5.36;100.00
54994;BME280;40891;47.242;8.648;2023-02-04T04:58:36;97865.03;;;5.42;100.00
54994;BME280;40891;47.242;8.648;2023-02-04T05:01:02;97868.13;;;5.34;100.00
54994;BME280;40891;47.242;8.648;2023-02-04T05:03:27;97870.44;;;5.28;100.00
54994;BME280;40891;47.242;8.648;2023-02-04T05:05:52;97859.03;;;5.30;100.00
54994;BME280;40891;47.242;8.648;2023-02-04T05:08:17;97867.44;;;5.47;100.00
54994;BME280;40891;47.242;8.648;2023-02-04T05:10:45;97863.88;;;5.43;100.00
54994;BME280;40891;47.242;8.648;2023-02-04T05:13:11;97866.16;;;5.34;100.00
54994;BME280;40891;47.242;8.648;2023-02-04T05:15:36;97859.16;;;5.47;100.00
54994;BME280;40891;47.242;8.648;2023-02-04T05:18:02;97863.00;;;5.36;100.00
54994;BME280;40891;47.242;8.648;2023-02-04T05:20:27;97867.31;;;5.30;100.00
54994;BME280;40891;47.242;8.648;2023-02-04T05:22:53;97868.13;;;5.37;100.00
54994;BME280;40891;47.242;8.648;2023-02-04T05:25:20;97861.84;;;5.37;100.00
54994;BME280;40891;47.242;8.648;2023-02-04T05:27:46;97867.72;;;5.32;100.00
54994;BME280;40891;47.242;8.648;2023-02-04T05:30:12;97870.44;;;5.28;100.00
54994;BME280;40891;47.242;8.648;2023-02-04T05:32:38;97867.25;;;5.26;100.00
54994;BME280;40891;47.242;8.648;2023-02-04T05:35:04;97880.31;;;5.29;100.00
54994;BME280;40891;47.242;8.648;2023-02-04T05:37:30;97876.91;;;5.46;100.00
54994;BME280;40891;47.242;8.648;2023-02-04T05:39:55;97867.09;;;5.56;100.00
54994;BME280;40891;47.242;8.648;2023-02-04T05:42:20;97872.91;;;5.40;100.00
54994;BME280;40891;47.242;8.648;2023-02-04T05:44:46;97873.66;;;5.37;100.00
54994;BME280;40891;47.242;8.648;2023-02-04T05:47:11;97878.41;;;5.37;100.00
54994;BME280;40891;47.242;8.648;2023-02-04T05:49:36;97867.38;;;5.40;100.00
54994;BME280;40891;47.242;8.648;2023-02-04T05:52:02;97871.00;;;5.48;100.00
54994;BME280;40891;47.242;8.648;2023-02-04T05:54:27;97878.41;;;5.40;100.00
54994;BME280;40891;47.242;8.648;2023-02-04T05:56:52;97872.53;;;5.45;100.00
54994;BME280;40891;47.242;8.648;2023-02-04T05:59:18;97870.47;;;5.32;100.00
54994;BME280;40891;47.242;8.648;2023-02-04T06:01:43;97880.25;;;5.26;100.00
54994;BME280;40891;47.242;8.648;2023-02-04T06:04:08;97886.19;;;5.28;100.00
54994;BME280;40891;47.242;8.648;2023-02-04T06:06:34;97885.75;;;5.22;100.00
54994;BME280;40891;47.242;8.648;2023-02-04T06:09:00;97888.16;;;5.27;100.00
54994;BME280;40891;47.242;8.648;2023-02-04T06:11:25;97889.44;;;5.37;100.00
54994;BME280;40891;47.242;8.648;2023-02-04T06:13:51;97879.56;;;5.36;100.00
54994;BME280;40891;47.242;8.648;2023-02-04T06:16:16;97886.75;;;5.47;100.00
54994;BME280;40891;47.242;8.648;2023-02-04T06:18:41;97884.06;;;5.58;100.00
54994;BME280;40891;47.242;8.648;2023-02-04T06:21:07;97887.53;;;5.48;100.00
54994;BME280;40891;47.242;8.648;2023-02-04T06:23:32;97884.38;;;5.49;100.00
54994;BME280;40891;47.242;8.648;2023-02-04T06:25:59;97878.91;;;5.53;100.00
54994;BME280;40891;47.242;8.648;2023-02-04T06:28:25;97876.94;;;5.54;100.00
54994;BME280;40891;47.242;8.648;2023-02-04T06:30:50;97878.81;;;5.39;100.00
54994;BME280;40891;47.242;8.648;2023-02-04T06:33:15;97885.94;;;5.43;100.00
54994;BME280;40891;47.242;8.648;2023-02-04T06:35:41;97887.84;;;5.39;100.00
54994;BME280;40891;47.242;8.648;2023-02-04T06:38:06;97885.47;;;5.38;100.00
54994;BME280;40891;47.242;8.648;2023-02-04T06:40:31;97882.84;;;5.52;100.00
54994;BME280;40891;47.242;8.648;2023-02-04T06:42:57;97881.44;;;5.76;100.00
54994;BME280;40891;47.242;8.648;2023-02-04T06:45:22;97879.47;;;5.76;100.00
54994;BME280;40891;47.242;8.648;2023-02-04T06:47:47;97881.72;;;5.60;100.00
54994;BME280;40891;47.242;8.648;2023-02-04T06:50:13;97880.81;;;5.45;100.00
54994;BME280;40891;47.242;8.648;2023-02-04T06:52:43;97879.97;;;5.38;100.00
54994;BME280;40891;47.242;8.648;2023-02-04T06:55:09;97889.03;;;5.38;100.00
54994;BME280;40891;47.242;8.648;2023-02-04T06:57:34;97889.00;;;5.35;100.00
54994;BME280;40891;47.242;8.648;2023-02-04T07:00:00;97894.91;;;5.33;100.00
54994;BME280;40891;47.242;8.648;2023-02-04T07:02:25;97893.00;;;5.44;100.00
54994;BME280;40891;47.242;8.648;2023-02-04T07:04:50;97886.09;;;5.68;100.00
54994;BME280;40891;47.242;8.648;2023-02-04T07:07:16;97886.03;;;5.58;100.00
54994;BME280;40891;47.242;8.648;2023-02-04T07:09:41;97892.31;;;5.55;100.00
54994;BME280;40891;47.242;8.648;2023-02-04T07:12:06;97891.09;;;5.48;100.00
54994;BME280;40891;47.242;8.648;2023-02-04T07:14:32;97892.25;;;5.47;100.00
54994;BME280;40891;47.242;8.648;2023-02-04T07:16:57;97895.41;;;5.49;100.00
54994;BME280;40891;47.242;8.648;2023-02-04T07:19:23;97891.84;;;5.45;100.00
54994;BME280;40891;47.242;8.648;2023-02-04T07:21:48;97891.50;;;5.50;100.00
54994;BME280;40891;47.242;8.648;2023-02-04T07:24:18;97892.69;;;5.53;100.00
54994;BME280;40891;47.242;8.648;2023-02-04T07:26:43;97899.72;;;5.47;100.00
54994;BME280;40891;47.242;8.648;2023-02-04T07:29:08;97903.72;;;5.53;100.00
54994;BME280;40891;47.242;8.648;2023-02-04T07:31:34;97906.84;;;5.51;100.00
54994;BME280;40891;47.242;8.648;2023-02-04T07:33:59;97906.19;;;5.65;100.00
54994;BME280;40891;47.242;8.648;2023-02-04T07:36:24;97909.63;;;5.51;100.00
54994;BME280;40891;47.242;8.648;2023-02-04T07:38:50;97915.13;;;5.51;100.00
54994;BME280;40891;47.242;8.648;2023-02-04T07:41:15;97915.56;;;5.54;100.00
54994;BME280;40891;47.242;8.648;2023-02-04T07:43:41;97929.72;;;5.52;100.00
54994;BME280;40891;47.242;8.648;2023-02-04T07:46:06;97923.84;;;5.57;100.00
54994;BME280;40891;47.242;8.648;2023-02-04T07:48:31;97926.72;;;5.68;100.00
54994;BME280;40891;47.242;8.648;2023-02-04T07:50:56;97925.69;;;5.90;100.00
54994;BME280;40891;47.242;8.648;2023-02-04T07:53:22;97922.00;;;5.75;100.00
54994;BME280;40891;47.242;8.648;2023-02-04T07:55:47;97914.47;;;5.65;100.00
54994;BME280;40891;47.242;8.648;2023-02-04T07:58:12;97915.63;;;5.64;100.00
54994;BME280;40891;47.242;8.648;2023-02-04T08:00:38;97923.47;;;5.59;100.00
54994;BME280;40891;47.242;8.648;2023-02-04T08:03:04;97920.75;;;5.62;100.00
54994;BME280;40891;47.242;8.648;2023-02-04T08:05:29;97921.16;;;5.64;100.00
54994;BME280;40891;47.242;8.648;2023-02-04T08:07:54;97918.44;;;5.68;100.00
54994;BME280;40891;47.242;8.648;2023-02-04T08:10:20;97921.66;;;5.80;100.00
54994;BME280;40891;47.242;8.648;2023-02-04T08:12:45;97919.78;;;5.84;100.00
54994;BME280;40891;47.242;8.648;2023-02-04T08:15:11;97921.69;;;5.84;100.00
54994;BME280;40891;47.242;8.648;2023-02-04T08:17:36;97925.22;;;5.77;100.00
54994;BME280;40891;47.242;8.648;2023-02-04T08:20:03;97919.28;;;5.79;100.00
54994;BME280;40891;47.242;8.648;2023-02-04T08:22:28;97920.47;;;5.78;100.00
54994;BME280;40891;47.242;8.648;2023-02-04T08:24:53;97914.56;;;5.79;100.00
54994;BME280;40891;47.242;8.648;2023-02-04T08:27:19;97927.56;;;5.79;100.00
54994;BME280;40891;47.242;8.648;2023-02-04T08:29:44;97920.88;;;5.80;100.00
54994;BME280;40891;47.242;8.648;2023-02-04T08:32:10;97928.78;;;5.81;100.00
54994;BME280;40891;47.242;8.648;2023-02-04T08:34:38;97932.41;;;5.89;100.00
54994;BME280;40891;47.242;8.648;2023-02-04T08:37:03;97941.09;;;5.91;100.00
54994;BME280;40891;47.242;8.648;2023-02-04T08:39:29;97935.19;;;5.92;100.00
54994;BME280;40891;47.242;8.648;2023-02-04T08:41:54;97944.72;;;6.02;100.00
54994;BME280;40891;47.242;8.648;2023-02-04T08:44:20;97945.91;;;6.01;100.00
54994;BME280;40891;47.242;8.648;2023-02-04T08:46:45;97943.50;;;5.99;100.00
54994;BME280;40891;47.242;8.648;2023-02-04T08:49:10;97937.97;;;5.96;100.00
54994;BME280;40891;47.242;8.648;2023-02-04T08:51:36;97946.25;;;5.96;100.00
54994;BME280;40891;47.242;8.648;2023-02-04T08:54:01;97932.81;;;5.94;100.00
54994;BME280;40891;47.242;8.648;2023-02-04T08:56:26;97944.66;;;5.95;100.00
54994;BME280;40891;47.242;8.648;2023-02-04T08:58:52;97939.53;;;5.93;100.00
54994;BME280;40891;47.242;8.648;2023-02-04T09:01:18;97936.00;;;5.96;100.00
54994;BME280;40891;47.242;8.648;2023-02-04T09:03:44;97937.63;;;6.04;100.00
54994;BME280;40891;47.242;8.648;2023-02-04T09:06:10;97934.06;;;6.04;100.00
54994;BME280;40891;47.242;8.648;2023-02-04T09:08:35;97945.16;;;6.11;100.00
54994;BME280;40891;47.242;8.648;2023-02-04T09:11:01;97937.28;;;6.13;100.00
54994;BME280;40891;47.242;8.648;2023-02-04T09:13:26;97942.44;;;6.18;100.00
54994;BME280;40891;47.242;8.648;2023-02-04T09:15:52;97942.53;;;6.32;100.00
54994;BME280;40891;47.242;8.648;2023-02-04T09:18:18;97937.44;;;6.41;100.00
54994;BME280;40891;47.242;8.648;2023-02-04T09:20:46;97943.03;;;6.52;100.00
54994;BME280;40891;47.242;8.648;2023-02-04T09:23:12;97948.59;;;6.59;100.00
54994;BME280;40891;47.242;8.648;2023-02-04T09:25:39;97954.09;;;6.59;100.00
54994;BME280;40891;47.242;8.648;2023-02-04T09:28:04;97948.22;;;6.64;100.00
54994;BME280;40891;47.242;8.648;2023-02-04T09:30:30;97948.69;;;6.83;100.00
54994;BME280;40891;47.242;8.648;2023-02-04T09:32:56;97950.25;;;6.84;100.00
54994;BME280;40891;47.242;8.648;2023-02-04T09:35:21;97958.22;;;6.93;100.00
54994;BME280;40891;47.242;8.648;2023-02-04T09:37:46;97953.09;;;7.06;100.00
54994;BME280;40891;47.242;8.648;2023-02-04T09:40:14;97955.06;;;7.12;100.00
54994;BME280;40891;47.242;8.648;2023-02-04T09:42:42;97955.13;;;7.23;100.00
54994;BME280;40891;47.242;8.648;2023-02-04T09:45:14;97962.25;;;7.24;100.00
54994;BME280;40891;47.242;8.648;2023-02-04T09:47:41;97945.63;;;7.27;100.00
54994;BME280;40891;47.242;8.648;2023-02-04T09:50:13;97964.19;;;7.27;100.00
54994;BME280;40891;47.242;8.648;2023-02-04T09:52:39;97966.19;;;7.23;100.00
54994;BME280;40891;47.242;8.648;2023-02-04T09:55:11;97965.38;;;7.19;100.00
54994;BME280;40891;47.242;8.648;2023-02-04T09:57:37;97966.94;;;7.09;100.00
54994;BME280;40891;47.242;8.648;2023-02-04T10:00:15;97961.78;;;7.08;100.00
54994;BME280;40891;47.242;8.648;2023-02-04T10:02:41;97970.47;;;6.99;100.00
54994;BME280;40891;47.242;8.648;2023-02-04T10:05:15;97974.41;;;7.02;100.00
54994;BME280;40891;47.242;8.648;2023-02-04T10:07:41;97971.66;;;7.02;100.00
54994;BME280;40891;47.242;8.648;2023-02-04T10:10:18;97974.78;;;6.93;100.00
54994;BME280;40891;47.242;8.648;2023-02-04T10:12:45;97966.50;;;6.93;100.00
54994;BME280;40891;47.242;8.648;2023-02-04T10:15:15;97976.75;;;6.93;100.00
54994;BME280;40891;47.242;8.648;2023-02-04T10:17:41;97974.75;;;6.90;100.00
54994;BME280;40891;47.242;8.648;2023-02-04T10:20:12;97976.31;;;6.80;100.00
54994;BME280;40891;47.242;8.648;2023-02-04T10:22:38;97972.75;;;6.79;100.00
54994;BME280;40891;47.242;8.648;2023-02-04T10:25:10;97981.03;;;6.76;100.00
54994;BME280;40891;47.242;8.648;2023-02-04T10:27:53;97984.59;;;6.80;100.00
54994;BME280;40891;47.242;8.648;2023-02-04T10:30:38;97989.72;;;6.78;100.00
54994;BME280;40891;47.242;8.648;2023-02-04T10:35:46;97986.53;;;6.72;100.00
54994;BME280;40891;47.242;8.648;2023-02-04T10:38:11;97988.16;;;6.80;100.00
54994;BME280;40891;47.242;8.648;2023-02-04T10:40:37;97983.81;;;6.79;100.00
54994;BME280;40891;47.242;8.648;2023-02-04T10:43:10;97988.97;;;6.81;100.00
54994;BME280;40891;47.242;8.648;2023-02-04T10:45:44;97977.94;;;6.88;100.00
54994;BME280;40891;47.242;8.648;2023-02-04T10:48:17;97965.28;;;6.83;100.00
54994;BME280;40891;47.242;8.648;2023-02-04T10:50:43;97968.81;;;6.84;100.00
54994;BME280;40891;47.242;8.648;2023-02-04T10:53:10;97966.88;;;6.92;100.00
54994;BME280;40891;47.242;8.648;2023-02-04T10:55:56;97971.66;;;7.02;100.00
54994;BME280;40891;47.242;8.648;2023-02-04T10:58:31;97973.63;;;7.08;100.00
54994;BME280;40891;47.242;8.648;2023-02-04T11:00:56;97968.91;;;7.12;100.00
54994;BME280;40891;47.242;8.648;2023-02-04T11:03:25;97968.50;;;7.07;100.00
54994;BME280;40891;47.242;8.648;2023-02-04T11:05:51;97967.31;;;7.04;100.00
54994;BME280;40891;47.242;8.648;2023-02-04T11:08:24;97958.25;;;7.11;100.00
54994;BME280;40891;47.242;8.648;2023-02-04T11:10:54;97963.81;;;7.32;100.00
54994;BME280;40891;47.242;8.648;2023-02-04T11:13:23;97948.44;;;7.52;100.00
54994;BME280;40891;47.242;8.648;2023-02-04T11:15:53;97951.59;;;7.65;100.00
54994;BME280;40891;47.242;8.648;2023-02-04T11:20:45;97955.56;;;7.92;100.00
54994;BME280;40891;47.242;8.648;2023-02-04T11:26:45;97956.34;;;7.99;100.00
54994;BME280;40891;47.242;8.648;2023-02-04T11:31:55;97955.97;;;8.04;100.00
54994;BME280;40891;47.242;8.648;2023-02-04T11:37:00;97958.34;;;7.92;100.00
54994;BME280;40891;47.242;8.648;2023-02-04T11:39:35;97964.25;;;7.87;100.00
54994;BME280;40891;47.242;8.648;2023-02-04T11:42:02;97964.25;;;7.76;100.00
54994;BME280;40891;47.242;8.648;2023-02-04T11:44:28;97963.47;;;7.65;100.00
54994;BME280;40891;47.242;8.648;2023-02-04T11:46:54;97963.84;;;7.74;100.00
54994;BME280;40891;47.242;8.648;2023-02-04T11:49:21;97967.81;;;7.59;100.00
54994;BME280;40891;47.242;8.648;2023-02-04T11:51:47;97968.56;;;7.45;100.00
54994;BME280;40891;47.242;8.648;2023-02-04T11:54:14;97965.03;;;7.48;100.00
54994;BME280;40891;47.242;8.648;2023-02-04T11:56:44;97955.56;;;7.60;100.00
54994;BME280;40891;47.242;8.648;2023-02-04T11:59:11;97960.28;;;7.60;100.00
54994;BME280;40891;47.242;8.648;2023-02-04T12:01:37;97955.19;;;7.62;100.00
54994;BME280;40891;47.242;8.648;2023-02-04T12:04:05;97953.19;;;7.66;100.00
54994;BME280;40891;47.242;8.648;2023-02-04T12:06:34;97955.16;;;7.58;100.00
54994;BME280;40891;47.242;8.648;2023-02-04T12:09:18;97954.38;;;7.54;100.00
54994;BME280;40891;47.242;8.648;2023-02-04T12:12:00;97945.66;;;7.63;100.00
54994;BME280;40891;47.242;8.648;2023-02-04T12:14:34;97950.00;;;7.88;100.00
54994;BME280;40891;47.242;8.648;2023-02-04T12:17:13;97957.53;;;7.98;100.00
54994;BME280;40891;47.242;8.648;2023-02-04T12:19:39;97962.66;;;8.07;100.00
54994;BME280;40891;47.242;8.648;2023-02-04T12:22:04;97959.50;;;8.15;100.00
54994;BME280;40891;47.242;8.648;2023-02-04T12:24:30;97962.25;;;8.15;100.00
54994;BME280;40891;47.242;8.648;2023-02-04T12:26:55;97965.81;;;8.12;100.00
54994;BME280;40891;47.242;8.648;2023-02-04T12:29:21;97971.78;;;8.00;100.00
54994;BME280;40891;47.242;8.648;2023-02-04T12:31:46;97969.00;;;8.00;100.00
54994;BME280;40891;47.242;8.648;2023-02-04T12:34:14;97964.25;;;7.90;100.00
54994;BME280;40891;47.242;8.648;2023-02-04T12:36:41;97964.66;;;7.85;100.00
54994;BME280;40891;47.242;8.648;2023-02-04T12:39:06;97966.63;;;7.88;100.00
54994;BME280;40891;47.242;8.648;2023-02-04T12:41:32;97967.84;;;7.80;100.00
54994;BME280;40891;47.242;8.648;2023-02-04T12:43:57;97976.13;;;7.63;100.00
54994;BME280;40891;47.242;8.648;2023-02-04T12:46:25;97973.75;;;7.61;100.00
54994;BME280;40891;47.242;8.648;2023-02-04T12:48:50;97967.44;;;7.64;100.00
54994;BME280;40891;47.242;8.648;2023-02-04T12:51:16;97967.81;;;7.91;100.00
54994;BME280;40891;47.242;8.648;2023-02-04T12:53:41;97968.63;;;7.88;100.00
54994;BME280;40891;47.242;8.648;2023-02-04T12:56:06;97967.00;;;7.90;100.00
54994;BME280;40891;47.242;8.648;2023-02-04T12:58:32;97965.06;;;7.73;100.00
54994;BME280;40891;47.242;8.648;2023-02-04T13:00:57;97972.56;;;7.62;100.00
54994;BME280;40891;47.242;8.648;2023-02-04T13:03:22;97963.06;;;7.56;100.00
54994;BME280;40891;47.242;8.648;2023-02-04T13:05:49;97970.97;;;7.57;100.00
54994;BME280;40891;47.242;8.648;2023-02-04T13:08:14;97973.34;;;7.55;100.00
54994;BME280;40891;47.242;8.648;2023-02-04T13:10:39;97970.19;;;7.53;100.00